Flagstaff, AZ (86004)

5:59 PM MST on August 29, 2016 (GMT -0700)
Swiss Manor | | Change Station

Elev 7034 ft 35.22 °N, 111.60 °W | Updated 3 minutes ago

Clear
Clear
71.2 °F
Feels Like 77 °F
N
3.0
Wind Variable Wind from East

Today
High -- | Low -- °F
--% Chance of Precip.
Yesterday
High -- | Low -- °F
Precip. -- in
Pressure 30.06 in
Visibility 10.0 miles
Clouds Clear
Heat Index 77 °F
Dew Point 43 °F
Humidity 36%
Rainfall 0.00 in
Snow Depth Not available.
5:56 AM 6:56 PM
Waning Crescent, 6% visible
METAR KFLG 300057Z 03007KT 10SM CLR 22/06 A3030 RMK AO2 SLP180 T02220061
Pressure 30.06 in
Visibility 10.0 miles
Clouds Clear
Heat Index 77 °F
Dew Point 43 °F
Humidity 36%
Rainfall 0.00 in
Snow Depth Not available.
5:56 AM 6:56 PM
Waning Crescent, 6% visible
METAR KFLG 300057Z 03007KT 10SM CLR 22/06 A3030 RMK AO2 SLP180 T02220061

10-Day Weather Forecast

Almanac

Astronomy

Aug. 29, 2016 Rise Set
Actual Time
Civil Twilight
Nautical Twilight
Astronomical Twilight
Moon
Length of Visible Light
Length of Day
Tomorrow will be .
, % of the Moon is Illuminated

Today's Extremes

State Highs State Lows

Community

WunderPhotos

Upload Photos

1,935,707 photos uploaded!

WunderBlog® & News

Nearby

Air Quality

  Air Quality AQ Index Pollutant
Not available.

Snow Depth

Station Depth Elevation

Earthquake Activity

City Distance Mag. Time & Date
Minimum magnitude displayed is 2.5.

Coastal Water Temperatures

Place Temperature

Stations

Nearby Weather Stations

Station Location Temp. Windchill Dew Point Humidity Wind Precip. Elev Updated Type
                   

Watches & Warnings

There are currently no watches in effect.